sensor_id;sensor_type;location;lat;lon;timestamp;temperature;humidity
20428;DHT22;10373;49.768;18.302;2023-06-04T00:01:09;11.50;99.90
20428;DHT22;10373;49.768;18.302;2023-06-04T00:03:35;11.50;99.90
20428;DHT22;10373;49.768;18.302;2023-06-04T00:06:01;11.40;99.90
20428;DHT22;10373;49.768;18.302;2023-06-04T00:08:26;11.40;99.90
20428;DHT22;10373;49.768;18.302;2023-06-04T00:10:52;11.40;99.90
20428;DHT22;10373;49.768;18.302;2023-06-04T00:13:18;11.40;99.90
20428;DHT22;10373;49.768;18.302;2023-06-04T00:15:43;11.40;99.90
20428;DHT22;10373;49.768;18.302;2023-06-04T00:18:09;11.40;99.90
20428;DHT22;10373;49.768;18.302;2023-06-04T00:20:36;11.40;99.90
20428;DHT22;10373;49.768;18.302;2023-06-04T00:23:03;11.40;99.90
20428;DHT22;10373;49.768;18.302;2023-06-04T00:25:28;11.40;99.90
20428;DHT22;10373;49.768;18.302;2023-06-04T00:27:54;11.40;99.90
20428;DHT22;10373;49.768;18.302;2023-06-04T00:30:19;11.40;99.90
20428;DHT22;10373;49.768;18.302;2023-06-04T00:32:45;11.40;99.90
20428;DHT22;10373;49.768;18.302;2023-06-04T00:35:12;11.40;99.90
20428;DHT22;10373;49.768;18.302;2023-06-04T00:37:38;11.30;99.90
20428;DHT22;10373;49.768;18.302;2023-06-04T00:40:04;11.30;99.90
20428;DHT22;10373;49.768;18.302;2023-06-04T00:42:31;11.30;99.90
20428;DHT22;10373;49.768;18.302;2023-06-04T00:44:57;11.20;99.90
20428;DHT22;10373;49.768;18.302;2023-06-04T00:47:23;11.00;99.90
20428;DHT22;10373;49.768;18.302;2023-06-04T00:49:49;10.90;99.90
20428;DHT22;10373;49.768;18.302;2023-06-04T00:52:15;10.90;99.90
20428;DHT22;10373;49.768;18.302;2023-06-04T00:54:41;10.90;99.90
20428;DHT22;10373;49.768;18.302;2023-06-04T00:57:07;10.90;99.90
20428;DHT22;10373;49.768;18.302;2023-06-04T00:59:36;10.90;99.90
20428;DHT22;10373;49.768;18.302;2023-06-04T01:07:21;10.80;99.90
20428;DHT22;10373;49.768;18.302;2023-06-04T01:09:49;10.70;99.90
20428;DHT22;10373;49.768;18.302;2023-06-04T01:12:15;10.60;99.90
20428;DHT22;10373;49.768;18.302;2023-06-04T01:14:41;10.60;99.90
20428;DHT22;10373;49.768;18.302;2023-06-04T01:17:21;10.60;99.90
20428;DHT22;10373;49.768;18.302;2023-06-04T01:25:34;10.70;99.90
20428;DHT22;10373;49.768;18.302;2023-06-04T01:28:02;10.70;99.90
20428;DHT22;10373;49.768;18.302;2023-06-04T01:30:36;10.70;99.90
20428;DHT22;10373;49.768;18.302;2023-06-04T01:33:09;10.60;99.90
20428;DHT22;10373;49.768;18.302;2023-06-04T01:35:39;10.50;99.90
20428;DHT22;10373;49.768;18.302;2023-06-04T01:38:05;10.50;99.90
20428;DHT22;10373;49.768;18.302;2023-06-04T01:40:31;10.40;99.90
20428;DHT22;10373;49.768;18.302;2023-06-04T01:42:58;10.30;99.90
20428;DHT22;10373;49.768;18.302;2023-06-04T01:45:25;10.40;99.90
20428;DHT22;10373;49.768;18.302;2023-06-04T01:47:52;10.40;99.90
20428;DHT22;10373;49.768;18.302;2023-06-04T01:50:18;10.30;99.90
20428;DHT22;10373;49.768;18.302;2023-06-04T01:52:44;10.40;99.90
20428;DHT22;10373;49.768;18.302;2023-06-04T01:55:12;10.40;99.90
20428;DHT22;10373;49.768;18.302;2023-06-04T01:57:39;10.40;99.90
20428;DHT22;10373;49.768;18.302;2023-06-04T02:00:08;10.50;99.90
20428;DHT22;10373;49.768;18.302;2023-06-04T02:02:41;10.40;99.90
20428;DHT22;10373;49.768;18.302;2023-06-04T02:05:07;10.30;99.90
20428;DHT22;10373;49.768;18.302;2023-06-04T02:07:40;10.30;99.90
20428;DHT22;10373;49.768;18.302;2023-06-04T02:10:10;10.30;99.90
20428;DHT22;10373;49.768;18.302;2023-06-04T02:12:38;10.30;99.90
20428;DHT22;10373;49.768;18.302;2023-06-04T02:15:04;10.40;99.90
20428;DHT22;10373;49.768;18.302;2023-06-04T02:17:30;10.40;99.90
20428;DHT22;10373;49.768;18.302;2023-06-04T02:19:58;10.30;99.90
20428;DHT22;10373;49.768;18.302;2023-06-04T02:22:24;10.20;99.90
20428;DHT22;10373;49.768;18.302;2023-06-04T02:24:50;10.20;99.90
20428;DHT22;10373;49.768;18.302;2023-06-04T02:27:16;10.20;99.90
20428;DHT22;10373;49.768;18.302;2023-06-04T02:29:42;10.20;99.90
20428;DHT22;10373;49.768;18.302;2023-06-04T02:32:08;10.00;99.90
20428;DHT22;10373;49.768;18.302;2023-06-04T02:34:34;10.00;99.90
20428;DHT22;10373;49.768;18.302;2023-06-04T02:37:00;10.10;99.90
20428;DHT22;10373;49.768;18.302;2023-06-04T02:39:26;10.00;99.90
20428;DHT22;10373;49.768;18.302;2023-06-04T02:41:52;9.90;99.90
20428;DHT22;10373;49.768;18.302;2023-06-04T02:44:17;9.90;99.90
20428;DHT22;10373;49.768;18.302;2023-06-04T02:46:43;9.90;99.90
20428;DHT22;10373;49.768;18.302;2023-06-04T02:49:10;9.80;99.90
20428;DHT22;10373;49.768;18.302;2023-06-04T02:51:42;9.80;99.90
20428;DHT22;10373;49.768;18.302;2023-06-04T02:54:08;9.90;99.90
20428;DHT22;10373;49.768;18.302;2023-06-04T02:56:35;10.00;99.90
20428;DHT22;10373;49.768;18.302;2023-06-04T02:59:01;9.90;99.90
20428;DHT22;10373;49.768;18.302;2023-06-04T03:01:27;9.80;99.90
20428;DHT22;10373;49.768;18.302;2023-06-04T03:03:54;9.80;99.90
20428;DHT22;10373;49.768;18.302;2023-06-04T03:06:21;9.90;99.90
20428;DHT22;10373;49.768;18.302;2023-06-04T03:08:48;9.90;99.90
20428;DHT22;10373;49.768;18.302;2023-06-04T03:11:14;10.00;99.90
20428;DHT22;10373;49.768;18.302;2023-06-04T03:13:40;9.80;99.90
20428;DHT22;10373;49.768;18.302;2023-06-04T03:16:06;9.80;99.90
20428;DHT22;10373;49.768;18.302;2023-06-04T03:18:37;9.90;99.90
20428;DHT22;10373;49.768;18.302;2023-06-04T03:21:04;10.00;99.90
20428;DHT22;10373;49.768;18.302;2023-06-04T03:23:30;10.00;99.90
20428;DHT22;10373;49.768;18.302;2023-06-04T03:25:56;10.00;99.90
20428;DHT22;10373;49.768;18.302;2023-06-04T03:28:21;10.00;99.90
20428;DHT22;10373;49.768;18.302;2023-06-04T03:30:47;10.10;99.90
20428;DHT22;10373;49.768;18.302;2023-06-04T03:33:13;10.20;99.90
20428;DHT22;10373;49.768;18.302;2023-06-04T03:35:40;10.20;99.90
20428;DHT22;10373;49.768;18.302;2023-06-04T03:38:06;10.20;99.90
20428;DHT22;10373;49.768;18.302;2023-06-04T03:40:32;10.30;99.90
20428;DHT22;10373;49.768;18.302;2023-06-04T03:42:58;10.20;99.90
20428;DHT22;10373;49.768;18.302;2023-06-04T03:45:23;10.10;99.90
20428;DHT22;10373;49.768;18.302;2023-06-04T03:47:49;10.20;99.90
20428;DHT22;10373;49.768;18.302;2023-06-04T03:50:15;10.40;99.90
20428;DHT22;10373;49.768;18.302;2023-06-04T03:52:40;10.50;99.90
20428;DHT22;10373;49.768;18.302;2023-06-04T03:55:06;10.70;99.90
20428;DHT22;10373;49.768;18.302;2023-06-04T03:57:32;10.70;99.90
20428;DHT22;10373;49.768;18.302;2023-06-04T03:59:58;10.70;99.90
20428;DHT22;10373;49.768;18.302;2023-06-04T04:02:23;10.90;99.90
20428;DHT22;10373;49.768;18.302;2023-06-04T04:04:50;11.00;99.90
20428;DHT22;10373;49.768;18.302;2023-06-04T04:07:15;11.00;99.90
20428;DHT22;10373;49.768;18.302;2023-06-04T04:09:41;11.10;99.90
20428;DHT22;10373;49.768;18.302;2023-06-04T04:12:07;11.10;99.90
20428;DHT22;10373;49.768;18.302;2023-06-04T04:14:32;11.20;99.90
20428;DHT22;10373;49.768;18.302;2023-06-04T04:16:58;11.30;99.90
20428;DHT22;10373;49.768;18.302;2023-06-04T04:19:25;11.40;99.90
20428;DHT22;10373;49.768;18.302;2023-06-04T04:21:51;11.40;99.90
20428;DHT22;10373;49.768;18.302;2023-06-04T04:24:24;11.50;99.90
20428;DHT22;10373;49.768;18.302;2023-06-04T04:26:50;11.60;99.90
20428;DHT22;10373;49.768;18.302;2023-06-04T04:29:22;11.70;99.90
20428;DHT22;10373;49.768;18.302;2023-06-04T04:31:50;11.80;99.90
20428;DHT22;10373;49.768;18.302;2023-06-04T04:34:16;12.00;99.90
20428;DHT22;10373;49.768;18.302;2023-06-04T04:36:43;12.10;99.90
20428;DHT22;10373;49.768;18.302;2023-06-04T04:39:09;12.20;99.90
20428;DHT22;10373;49.768;18.302;2023-06-04T04:41:37;12.30;99.90
20428;DHT22;10373;49.768;18.302;2023-06-04T04:44:03;12.50;99.90
20428;DHT22;10373;49.768;18.302;2023-06-04T04:46:30;12.50;99.90
20428;DHT22;10373;49.768;18.302;2023-06-04T04:48:56;12.60;99.90
20428;DHT22;10373;49.768;18.302;2023-06-04T04:51:22;12.70;99.90
20428;DHT22;10373;49.768;18.302;2023-06-04T04:53:47;12.80;99.90
20428;DHT22;10373;49.768;18.302;2023-06-04T04:56:14;12.90;99.90
20428;DHT22;10373;49.768;18.302;2023-06-04T04:58:39;12.90;99.90
20428;DHT22;10373;49.768;18.302;2023-06-04T05:01:05;12.80;99.90
20428;DHT22;10373;49.768;18.302;2023-06-04T05:03:31;12.80;99.90
20428;DHT22;10373;49.768;18.302;2023-06-04T05:05:56;13.00;99.90
20428;DHT22;10373;49.768;18.302;2023-06-04T05:08:22;13.10;99.90
20428;DHT22;10373;49.768;18.302;2023-06-04T05:10:48;13.10;99.90
20428;DHT22;10373;49.768;18.302;2023-06-04T05:13:14;13.00;99.00
20428;DHT22;10373;49.768;18.302;2023-06-04T05:15:40;13.00;99.90
20428;DHT22;10373;49.768;18.302;2023-06-04T05:18:07;13.10;99.90
20428;DHT22;10373;49.768;18.302;2023-06-04T05:20:34;13.40;99.90
20428;DHT22;10373;49.768;18.302;2023-06-04T05:23:03;13.50;98.40
20428;DHT22;10373;49.768;18.302;2023-06-04T05:25:29;13.70;99.90
20428;DHT22;10373;49.768;18.302;2023-06-04T05:27:56;13.90;97.20
20428;DHT22;10373;49.768;18.302;2023-06-04T05:30:22;14.10;98.70
20428;DHT22;10373;49.768;18.302;2023-06-04T05:32:48;14.30;97.50
20428;DHT22;10373;49.768;18.302;2023-06-04T05:35:16;14.20;90.70
20428;DHT22;10373;49.768;18.302;2023-06-04T05:37:42;14.10;87.40
20428;DHT22;10373;49.768;18.302;2023-06-04T05:40:08;14.10;91.70
20428;DHT22;10373;49.768;18.302;2023-06-04T05:42:35;13.90;85.50
20428;DHT22;10373;49.768;18.302;2023-06-04T05:48:16;13.80;94.60
20428;DHT22;10373;49.768;18.302;2023-06-04T05:50:42;14.00;89.00
20428;DHT22;10373;49.768;18.302;2023-06-04T05:53:08;13.90;88.70
20428;DHT22;10373;49.768;18.302;2023-06-04T05:55:34;14.00;93.80
20428;DHT22;10373;49.768;18.302;2023-06-04T05:57:59;14.20;94.10
20428;DHT22;10373;49.768;18.302;2023-06-04T06:00:25;14.40;91.70
20428;DHT22;10373;49.768;18.302;2023-06-04T06:02:51;14.50;90.30
20428;DHT22;10373;49.768;18.302;2023-06-04T06:05:18;14.70;92.80
20428;DHT22;10373;49.768;18.302;2023-06-04T06:07:45;14.80;84.30
20428;DHT22;10373;49.768;18.302;2023-06-04T06:10:11;14.70;82.90
20428;DHT22;10373;49.768;18.302;2023-06-04T06:12:37;14.80;85.10
20428;DHT22;10373;49.768;18.302;2023-06-04T06:15:02;14.90;87.10
20428;DHT22;10373;49.768;18.302;2023-06-04T06:17:28;14.80;81.90
20428;DHT22;10373;49.768;18.302;2023-06-04T06:19:54;14.60;80.50
20428;DHT22;10373;49.768;18.302;2023-06-04T06:22:21;14.80;91.40
20428;DHT22;10373;49.768;18.302;2023-06-04T06:24:47;15.00;86.40
20428;DHT22;10373;49.768;18.302;2023-06-04T06:27:16;14.80;78.60
20428;DHT22;10373;49.768;18.302;2023-06-04T06:29:42;15.10;85.10
20428;DHT22;10373;49.768;18.302;2023-06-04T06:32:09;15.40;88.00
20428;DHT22;10373;49.768;18.302;2023-06-04T06:34:35;15.60;86.70
20428;DHT22;10373;49.768;18.302;2023-06-04T06:37:01;15.60;82.10
20428;DHT22;10373;49.768;18.302;2023-06-04T06:39:26;15.60;77.90
20428;DHT22;10373;49.768;18.302;2023-06-04T06:41:52;15.50;76.50
20428;DHT22;10373;49.768;18.302;2023-06-04T06:44:18;15.40;74.20
20428;DHT22;10373;49.768;18.302;2023-06-04T06:46:43;15.50;76.70
20428;DHT22;10373;49.768;18.302;2023-06-04T06:49:09;15.60;78.30
20428;DHT22;10373;49.768;18.302;2023-06-04T06:51:34;15.70;73.20
20428;DHT22;10373;49.768;18.302;2023-06-04T06:54:00;15.70;73.50
20428;DHT22;10373;49.768;18.302;2023-06-04T06:56:26;15.60;71.40
20428;DHT22;10373;49.768;18.302;2023-06-04T06:58:51;15.70;71.00
20428;DHT22;10373;49.768;18.302;2023-06-04T07:01:17;15.60;70.50
20428;DHT22;10373;49.768;18.302;2023-06-04T07:03:43;15.60;70.20
20428;DHT22;10373;49.768;18.302;2023-06-04T07:06:09;15.80;74.90
20428;DHT22;10373;49.768;18.302;2023-06-04T07:08:35;15.80;74.00
20428;DHT22;10373;49.768;18.302;2023-06-04T07:11:02;15.90;73.10
20428;DHT22;10373;49.768;18.302;2023-06-04T07:13:28;16.00;70.80
20428;DHT22;10373;49.768;18.302;2023-06-04T07:15:54;16.10;70.20
20428;DHT22;10373;49.768;18.302;2023-06-04T07:18:20;16.10;70.20
20428;DHT22;10373;49.768;18.302;2023-06-04T07:20:46;16.30;69.70
20428;DHT22;10373;49.768;18.302;2023-06-04T07:23:11;16.50;69.70
20428;DHT22;10373;49.768;18.302;2023-06-04T07:25:37;16.70;71.80
20428;DHT22;10373;49.768;18.302;2023-06-04T07:28:03;16.70;68.20
20428;DHT22;10373;49.768;18.302;2023-06-04T07:30:31;16.70;67.40
20428;DHT22;10373;49.768;18.302;2023-06-04T07:32:59;16.70;67.40
20428;DHT22;10373;49.768;18.302;2023-06-04T07:35:25;16.80;66.80
20428;DHT22;10373;49.768;18.302;2023-06-04T07:37:51;16.80;66.80
20428;DHT22;10373;49.768;18.302;2023-06-04T07:40:17;17.00;68.30
20428;DHT22;10373;49.768;18.302;2023-06-04T07:42:44;17.20;68.10
20428;DHT22;10373;49.768;18.302;2023-06-04T07:45:10;17.40;67.30
20428;DHT22;10373;49.768;18.302;2023-06-04T07:47:36;17.50;65.70
20428;DHT22;10373;49.768;18.302;2023-06-04T07:50:03;17.40;65.20
20428;DHT22;10373;49.768;18.302;2023-06-04T07:52:28;17.50;65.90
20428;DHT22;10373;49.768;18.302;2023-06-04T07:54:54;17.20;65.00
20428;DHT22;10373;49.768;18.302;2023-06-04T07:57:20;17.30;66.50
20428;DHT22;10373;49.768;18.302;2023-06-04T07:59:46;17.50;65.40
20428;DHT22;10373;49.768;18.302;2023-06-04T08:02:12;17.60;64.60
20428;DHT22;10373;49.768;18.302;2023-06-04T08:04:38;17.70;65.20
20428;DHT22;10373;49.768;18.302;2023-06-04T08:07:04;17.90;64.00
20428;DHT22;10373;49.768;18.302;2023-06-04T08:09:30;18.10;64.20
20428;DHT22;10373;49.768;18.302;2023-06-04T08:11:56;18.30;63.20
20428;DHT22;10373;49.768;18.302;2023-06-04T08:14:21;18.40;62.60
20428;DHT22;10373;49.768;18.302;2023-06-04T08:16:48;18.40;61.80
20428;DHT22;10373;49.768;18.302;2023-06-04T08:19:14;18.40;61.00
20428;DHT22;10373;49.768;18.302;2023-06-04T08:21:41;18.30;60.70
20428;DHT22;10373;49.768;18.302;2023-06-04T08:24:09;18.30;60.60
20428;DHT22;10373;49.768;18.302;2023-06-04T08:26:34;18.40;60.80
20428;DHT22;10373;49.768;18.302;2023-06-04T08:29:02;18.40;60.20
20428;DHT22;10373;49.768;18.302;2023-06-04T08:31:29;18.50;61.10
20428;DHT22;10373;49.768;18.302;2023-06-04T08:33:54;18.70;61.60
20428;DHT22;10373;49.768;18.302;2023-06-04T08:36:20;18.90;59.80
20428;DHT22;10373;49.768;18.302;2023-06-04T08:38:46;19.10;59.30
20428;DHT22;10373;49.768;18.302;2023-06-04T08:41:20;19.30;59.00
20428;DHT22;10373;49.768;18.302;2023-06-04T08:43:48;19.60;59.30
20428;DHT22;10373;49.768;18.302;2023-06-04T08:46:16;19.80;59.30
20428;DHT22;10373;49.768;18.302;2023-06-04T08:48:43;19.90;57.90
20428;DHT22;10373;49.768;18.302;2023-06-04T08:51:11;20.00;57.90
20428;DHT22;10373;49.768;18.302;2023-06-04T08:53:36;20.00;56.90
20428;DHT22;10373;49.768;18.302;2023-06-04T08:56:03;20.10;56.90
20428;DHT22;10373;49.768;18.302;2023-06-04T08:58:32;20.10;56.40
20428;DHT22;10373;49.768;18.302;2023-06-04T09:01:01;20.30;56.60
20428;DHT22;10373;49.768;18.302;2023-06-04T09:03:28;20.50;56.70
20428;DHT22;10373;49.768;18.302;2023-06-04T09:05:57;20.50;56.40
20428;DHT22;10373;49.768;18.302;2023-06-04T09:08:24;20.60;56.40
20428;DHT22;10373;49.768;18.302;2023-06-04T09:10:53;20.50;56.70
20428;DHT22;10373;49.768;18.302;2023-06-04T09:13:22;20.40;56.90
20428;DHT22;10373;49.768;18.302;2023-06-04T09:16:04;20.40;56.90
20428;DHT22;10373;49.768;18.302;2023-06-04T09:18:31;20.40;57.00
20428;DHT22;10373;49.768;18.302;2023-06-04T09:21:05;20.40;56.10
20428;DHT22;10373;49.768;18.302;2023-06-04T09:23:35;20.50;56.90
20428;DHT22;10373;49.768;18.302;2023-06-04T09:26:08;20.60;56.10
20428;DHT22;10373;49.768;18.302;2023-06-04T09:28:34;20.90;55.80
20428;DHT22;10373;49.768;18.302;2023-06-04T09:31:00;21.00;55.40
20428;DHT22;10373;49.768;18.302;2023-06-04T09:33:27;21.20;55.50
20428;DHT22;10373;49.768;18.302;2023-06-04T09:35:57;21.20;55.60
20428;DHT22;10373;49.768;18.302;2023-06-04T09:38:32;21.20;55.70
20428;DHT22;10373;49.768;18.302;2023-06-04T09:40:58;21.20;54.50
20428;DHT22;10373;49.768;18.302;2023-06-04T09:43:26;21.20;54.40
20428;DHT22;10373;49.768;18.302;2023-06-04T09:45:51;21.20;54.80
20428;DHT22;10373;49.768;18.302;2023-06-04T09:48:21;21.50;54.90
20428;DHT22;10373;49.768;18.302;2023-06-04T09:50:47;21.80;54.40
20428;DHT22;10373;49.768;18.302;2023-06-04T09:53:19;22.00;54.00
20428;DHT22;10373;49.768;18.302;2023-06-04T09:56:01;22.10;53.20
20428;DHT22;10373;49.768;18.302;2023-06-04T09:58:29;22.40;53.20
20428;DHT22;10373;49.768;18.302;2023-06-04T10:00:57;22.70;53.30
20428;DHT22;10373;49.768;18.302;2023-06-04T10:03:24;22.70;52.30
20428;DHT22;10373;49.768;18.302;2023-06-04T10:05:57;22.70;51.70
20428;DHT22;10373;49.768;18.302;2023-06-04T10:08:23;22.70;52.30
20428;DHT22;10373;49.768;18.302;2023-06-04T10:10:51;22.80;51.40
20428;DHT22;10373;49.768;18.302;2023-06-04T10:13:21;22.90;50.90
20428;DHT22;10373;49.768;18.302;2023-06-04T10:15:48;23.10;50.30
20428;DHT22;10373;49.768;18.302;2023-06-04T10:18:15;23.20;50.80
20428;DHT22;10373;49.768;18.302;2023-06-04T10:20:42;23.10;50.50
20428;DHT22;10373;49.768;18.302;2023-06-04T10:23:08;22.90;49.90
20428;DHT22;10373;49.768;18.302;2023-06-04T10:25:37;23.00;50.20
20428;DHT22;10373;49.768;18.302;2023-06-04T10:28:03;23.40;50.60
20428;DHT22;10373;49.768;18.302;2023-06-04T10:30:30;23.60;50.80
20428;DHT22;10373;49.768;18.302;2023-06-04T10:32:59;23.50;49.30
20428;DHT22;10373;49.768;18.302;2023-06-04T10:35:32;23.60;48.80
20428;DHT22;10373;49.768;18.302;2023-06-04T10:38:09;23.40;48.50
20428;DHT22;10373;49.768;18.302;2023-06-04T10:40:35;23.50;48.30
20428;DHT22;10373;49.768;18.302;2023-06-04T10:43:12;23.90;47.70
20428;DHT22;10373;49.768;18.302;2023-06-04T10:45:38;24.10;47.90
20428;DHT22;10373;49.768;18.302;2023-06-04T10:48:09;24.20;47.30
20428;DHT22;10373;49.768;18.302;2023-06-04T10:50:50;24.20;46.90
20428;DHT22;10373;49.768;18.302;2023-06-04T10:53:17;24.40;46.50
20428;DHT22;10373;49.768;18.302;2023-06-04T10:55:45;24.60;46.60
20428;DHT22;10373;49.768;18.302;2023-06-04T10:58:11;24.90;47.60
20428;DHT22;10373;49.768;18.302;2023-06-04T11:00:47;24.90;46.50
20428;DHT22;10373;49.768;18.302;2023-06-04T11:03:15;25.20;46.70
20428;DHT22;10373;49.768;18.302;2023-06-04T11:05:45;25.20;45.90
20428;DHT22;10373;49.768;18.302;2023-06-04T11:08:13;25.10;45.30
20428;DHT22;10373;49.768;18.302;2023-06-04T11:10:44;25.20;45.30
20428;DHT22;10373;49.768;18.302;2023-06-04T11:13:10;25.30;45.00
20428;DHT22;10373;49.768;18.302;2023-06-04T11:15:43;25.50;45.20
20428;DHT22;10373;49.768;18.302;2023-06-04T11:18:17;25.80;45.40
20428;DHT22;10373;49.768;18.302;2023-06-04T11:21:00;26.30;45.00
20428;DHT22;10373;49.768;18.302;2023-06-04T11:23:25;26.90;44.70
20428;DHT22;10373;49.768;18.302;2023-06-04T11:25:55;26.90;44.60
20428;DHT22;10373;49.768;18.302;2023-06-04T11:28:21;27.10;44.00
20428;DHT22;10373;49.768;18.302;2023-06-04T11:30:57;27.10;44.30
20428;DHT22;10373;49.768;18.302;2023-06-04T11:33:23;27.10;44.50
20428;DHT22;10373;49.768;18.302;2023-06-04T11:35:48;27.20;44.10
20428;DHT22;10373;49.768;18.302;2023-06-04T11:38:14;27.00;44.40
20428;DHT22;10373;49.768;18.302;2023-06-04T11:40:40;26.90;44.00
20428;DHT22;10373;49.768;18.302;2023-06-04T11:43:10;27.20;44.30
20428;DHT22;10373;49.768;18.302;2023-06-04T11:45:36;27.10;44.30
20428;DHT22;10373;49.768;18.302;2023-06-04T11:48:04;27.40;43.80
20428;DHT22;10373;49.768;18.302;2023-06-04T11:50:31;27.00;43.50
20428;DHT22;10373;49.768;18.302;2023-06-04T11:52:57;26.40;44.00
20428;DHT22;10373;49.768;18.302;2023-06-04T11:55:23;26.50;44.10
20428;DHT22;10373;49.768;18.302;2023-06-04T11:57:50;26.90;43.90
20428;DHT22;10373;49.768;18.302;2023-06-04T12:00:17;27.50;44.20
20428;DHT22;10373;49.768;18.302;2023-06-04T12:02:53;27.70;43.90
20428;DHT22;10373;49.768;18.302;2023-06-04T12:05:21;27.60;43.80
20428;DHT22;10373;49.768;18.302;2023-06-04T12:07:51;27.00;42.60
20428;DHT22;10373;49.768;18.302;2023-06-04T12:10:18;27.00;42.80
20428;DHT22;10373;49.768;18.302;2023-06-04T12:12:43;27.40;43.60
20428;DHT22;10373;49.768;18.302;2023-06-04T12:15:09;28.10;42.60
20428;DHT22;10373;49.768;18.302;2023-06-04T12:17:36;28.40;42.50
20428;DHT22;10373;49.768;18.302;2023-06-04T12:20:03;28.10;41.60
20428;DHT22;10373;49.768;18.302;2023-06-04T12:22:31;27.50;41.80
20428;DHT22;10373;49.768;18.302;2023-06-04T12:24:57;27.00;42.00
20428;DHT22;10373;49.768;18.302;2023-06-04T12:27:25;27.30;42.50
20428;DHT22;10373;49.768;18.302;2023-06-04T12:29:56;26.60;42.50
20428;DHT22;10373;49.768;18.302;2023-06-04T12:32:22;26.10;43.40
20428;DHT22;10373;49.768;18.302;2023-06-04T12:34:48;25.80;44.10
20428;DHT22;10373;49.768;18.302;2023-06-04T12:37:13;25.30;44.60
20428;DHT22;10373;49.768;18.302;2023-06-04T12:39:39;25.20;44.90
20428;DHT22;10373;49.768;18.302;2023-06-04T12:42:06;25.30;44.40
20428;DHT22;10373;49.768;18.302;2023-06-04T12:44:37;25.70;44.20
20428;DHT22;10373;49.768;18.302;2023-06-04T12:47:03;26.30;44.10
20428;DHT22;10373;49.768;18.302;2023-06-04T12:49:29;27.00;43.90
20428;DHT22;10373;49.768;18.302;2023-06-04T12:51:55;27.70;43.50
20428;DHT22;10373;49.768;18.302;2023-06-04T12:54:21;27.80;42.90
20428;DHT22;10373;49.768;18.302;2023-06-04T12:56:46;27.00;43.10
20428;DHT22;10373;49.768;18.302;2023-06-04T12:59:12;26.20;43.80
20428;DHT22;10373;49.768;18.302;2023-06-04T13:01:38;25.50;44.80
20428;DHT22;10373;49.768;18.302;2023-06-04T13:04:04;24.90;45.20
20428;DHT22;10373;49.768;18.302;2023-06-04T13:06:30;24.20;45.90
20428;DHT22;10373;49.768;18.302;2023-06-04T13:08:56;23.90;46.60
20428;DHT22;10373;49.768;18.302;2023-06-04T13:11:21;23.80;47.10
20428;DHT22;10373;49.768;18.302;2023-06-04T13:13:47;23.70;47.10
20428;DHT22;10373;49.768;18.302;2023-06-04T13:16:13;23.50;47.60
20428;DHT22;10373;49.768;18.302;2023-06-04T13:18:39;23.30;47.50
20428;DHT22;10373;49.768;18.302;2023-06-04T13:21:05;23.20;47.60
20428;DHT22;10373;49.768;18.302;2023-06-04T13:23:31;23.10;47.90
20428;DHT22;10373;49.768;18.302;2023-06-04T13:25:56;23.00;47.90
20428;DHT22;10373;49.768;18.302;2023-06-04T13:28:22;22.90;48.20
20428;DHT22;10373;49.768;18.302;2023-06-04T13:30:48;23.00;48.40
20428;DHT22;10373;49.768;18.302;2023-06-04T13:33:14;23.10;48.80
20428;DHT22;10373;49.768;18.302;2023-06-04T13:35:40;23.20;48.30
20428;DHT22;10373;49.768;18.302;2023-06-04T13:38:07;23.30;48.30
20428;DHT22;10373;49.768;18.302;2023-06-04T13:40:36;23.40;47.90
20428;DHT22;10373;49.768;18.302;2023-06-04T13:43:02;23.50;48.50
20428;DHT22;10373;49.768;18.302;2023-06-04T13:45:28;23.60;47.80
20428;DHT22;10373;49.768;18.302;2023-06-04T13:47:54;23.60;47.40
20428;DHT22;10373;49.768;18.302;2023-06-04T13:50:19;23.60;47.30
20428;DHT22;10373;49.768;18.302;2023-06-04T13:52:45;23.70;47.50
20428;DHT22;10373;49.768;18.302;2023-06-04T13:55:12;23.60;47.30
20428;DHT22;10373;49.768;18.302;2023-06-04T13:57:39;23.50;47.30
20428;DHT22;10373;49.768;18.302;2023-06-04T14:00:05;23.60;47.30
20428;DHT22;10373;49.768;18.302;2023-06-04T14:02:32;23.60;47.20
20428;DHT22;10373;49.768;18.302;2023-06-04T14:04:57;23.70;47.50
20428;DHT22;10373;49.768;18.302;2023-06-04T14:07:23;23.90;47.00
20428;DHT22;10373;49.768;18.302;2023-06-04T14:09:49;24.40;46.70
20428;DHT22;10373;49.768;18.302;2023-06-04T14:12:23;25.00;46.40
20428;DHT22;10373;49.768;18.302;2023-06-04T14:14:49;25.30;45.50
20428;DHT22;10373;49.768;18.302;2023-06-04T14:17:15;25.50;45.20
20428;DHT22;10373;49.768;18.302;2023-06-04T14:19:41;25.60;44.70
20428;DHT22;10373;49.768;18.302;2023-06-04T14:22:07;25.80;44.70
20428;DHT22;10373;49.768;18.302;2023-06-04T14:24:32;25.80;45.00
20428;DHT22;10373;49.768;18.302;2023-06-04T14:26:58;25.90;45.00
20428;DHT22;10373;49.768;18.302;2023-06-04T14:29:24;25.80;44.70
20428;DHT22;10373;49.768;18.302;2023-06-04T14:31:50;25.60;44.20
20428;DHT22;10373;49.768;18.302;2023-06-04T14:34:15;25.70;44.50
20428;DHT22;10373;49.768;18.302;2023-06-04T14:36:41;25.60;44.70
20428;DHT22;10373;49.768;18.302;2023-06-04T14:39:06;25.30;44.50
20428;DHT22;10373;49.768;18.302;2023-06-04T14:41:32;25.00;45.20
20428;DHT22;10373;49.768;18.302;2023-06-04T14:43:58;24.70;45.40
20428;DHT22;10373;49.768;18.302;2023-06-04T14:46:25;24.50;45.70
20428;DHT22;10373;49.768;18.302;2023-06-04T14:48:51;24.30;45.80
20428;DHT22;10373;49.768;18.302;2023-06-04T14:51:17;24.20;46.20
20428;DHT22;10373;49.768;18.302;2023-06-04T14:53:42;24.20;46.50
20428;DHT22;10373;49.768;18.302;2023-06-04T14:56:08;24.00;46.70
20428;DHT22;10373;49.768;18.302;2023-06-04T14:58:34;23.90;46.30
20428;DHT22;10373;49.768;18.302;2023-06-04T15:01:00;23.80;46.70
20428;DHT22;10373;49.768;18.302;2023-06-04T15:03:26;23.70;46.80
20428;DHT22;10373;49.768;18.302;2023-06-04T15:05:52;23.60;47.10
20428;DHT22;10373;49.768;18.302;2023-06-04T15:08:19;23.50;46.90
20428;DHT22;10373;49.768;18.302;2023-06-04T15:10:45;23.50;46.60
20428;DHT22;10373;49.768;18.302;2023-06-04T15:13:11;23.40;46.70
20428;DHT22;10373;49.768;18.302;2023-06-04T15:15:36;23.40;46.80
20428;DHT22;10373;49.768;18.302;2023-06-04T15:18:02;23.30;46.60
20428;DHT22;10373;49.768;18.302;2023-06-04T15:20:28;23.40;46.90
20428;DHT22;10373;49.768;18.302;2023-06-04T15:22:54;23.40;46.90
20428;DHT22;10373;49.768;18.302;2023-06-04T15:25:20;23.40;46.60
20428;DHT22;10373;49.768;18.302;2023-06-04T15:27:46;23.40;46.70
20428;DHT22;10373;49.768;18.302;2023-06-04T15:30:11;23.30;46.70